sensor_id;sensor_type;location;lat;lon;timestamp;temperature;humidity
55064;DHT22;40963;52.168;21.296;2023-05-10T00:00:37;7.30;93.50
55064;DHT22;40963;52.168;21.296;2023-05-10T00:03:02;7.30;93.30
55064;DHT22;40963;52.168;21.296;2023-05-10T00:05:30;7.20;93.00
55064;DHT22;40963;52.168;21.296;2023-05-10T00:07:56;7.20;92.90
55064;DHT22;40963;52.168;21.296;2023-05-10T00:10:22;7.20;92.70
55064;DHT22;40963;52.168;21.296;2023-05-10T00:12:47;7.20;92.50
55064;DHT22;40963;52.168;21.296;2023-05-10T00:15:13;7.20;92.50
55064;DHT22;40963;52.168;21.296;2023-05-10T00:17:39;7.20;92.40
55064;DHT22;40963;52.168;21.296;2023-05-10T00:20:05;7.20;92.30
55064;DHT22;40963;52.168;21.296;2023-05-10T00:22:31;7.20;92.10
55064;DHT22;40963;52.168;21.296;2023-05-10T00:24:58;7.20;92.00
55064;DHT22;40963;52.168;21.296;2023-05-10T00:27:23;7.20;92.20
55064;DHT22;40963;52.168;21.296;2023-05-10T00:29:49;7.20;91.70
55064;DHT22;40963;52.168;21.296;2023-05-10T00:32:14;7.20;91.60
55064;DHT22;40963;52.168;21.296;2023-05-10T00:34:40;7.20;91.50
55064;DHT22;40963;52.168;21.296;2023-05-10T00:37:06;7.20;91.30
55064;DHT22;40963;52.168;21.296;2023-05-10T00:39:31;7.20;91.20
55064;DHT22;40963;52.168;21.296;2023-05-10T00:41:57;7.20;91.10
55064;DHT22;40963;52.168;21.296;2023-05-10T00:44:22;7.20;90.90
55064;DHT22;40963;52.168;21.296;2023-05-10T00:46:48;7.20;90.80
55064;DHT22;40963;52.168;21.296;2023-05-10T00:49:15;7.20;90.70
55064;DHT22;40963;52.168;21.296;2023-05-10T00:51:41;7.20;90.60
55064;DHT22;40963;52.168;21.296;2023-05-10T00:54:09;7.20;90.50
55064;DHT22;40963;52.168;21.296;2023-05-10T00:56:35;7.20;90.30
55064;DHT22;40963;52.168;21.296;2023-05-10T00:59:01;7.20;90.20
55064;DHT22;40963;52.168;21.296;2023-05-10T01:01:28;7.20;90.10
55064;DHT22;40963;52.168;21.296;2023-05-10T01:03:54;7.20;90.10
55064;DHT22;40963;52.168;21.296;2023-05-10T01:06:20;7.10;90.00
55064;DHT22;40963;52.168;21.296;2023-05-10T01:08:46;7.10;90.00
55064;DHT22;40963;52.168;21.296;2023-05-10T01:11:13;7.10;89.90
55064;DHT22;40963;52.168;21.296;2023-05-10T01:13:40;7.10;89.70
55064;DHT22;40963;52.168;21.296;2023-05-10T01:16:07;7.10;89.80
55064;DHT22;40963;52.168;21.296;2023-05-10T01:18:36;7.10;89.60
55064;DHT22;40963;52.168;21.296;2023-05-10T01:35:10;7.00;88.50
55064;DHT22;40963;52.168;21.296;2023-05-10T01:37:59;7.00;88.20
55064;DHT22;40963;52.168;21.296;2023-05-10T01:43:32;7.00;87.40
55064;DHT22;40963;52.168;21.296;2023-05-10T01:46:05;7.00;87.00
55064;DHT22;40963;52.168;21.296;2023-05-10T01:48:38;7.00;87.00
55064;DHT22;40963;52.168;21.296;2023-05-10T01:51:06;7.00;86.60
55064;DHT22;40963;52.168;21.296;2023-05-10T01:53:35;7.00;86.60
55064;DHT22;40963;52.168;21.296;2023-05-10T01:56:03;7.00;86.40
55064;DHT22;40963;52.168;21.296;2023-05-10T01:58:31;7.00;86.30
55064;DHT22;40963;52.168;21.296;2023-05-10T02:01:00;7.00;85.90
55064;DHT22;40963;52.168;21.296;2023-05-10T02:03:28;7.00;85.60
55064;DHT22;40963;52.168;21.296;2023-05-10T02:05:56;6.90;85.40
55064;DHT22;40963;52.168;21.296;2023-05-10T02:08:23;6.90;85.60
55064;DHT22;40963;52.168;21.296;2023-05-10T02:10:50;7.00;85.40
55064;DHT22;40963;52.168;21.296;2023-05-10T02:13:18;6.90;85.20
55064;DHT22;40963;52.168;21.296;2023-05-10T02:15:47;6.90;85.80
55064;DHT22;40963;52.168;21.296;2023-05-10T02:18:13;6.90;85.30
55064;DHT22;40963;52.168;21.296;2023-05-10T02:20:41;6.90;85.40
55064;DHT22;40963;52.168;21.296;2023-05-10T02:23:08;6.90;85.60
55064;DHT22;40963;52.168;21.296;2023-05-10T02:25:35;6.90;85.70
55064;DHT22;40963;52.168;21.296;2023-05-10T02:28:02;6.80;85.90
55064;DHT22;40963;52.168;21.296;2023-05-10T02:30:29;6.80;85.80
55064;DHT22;40963;52.168;21.296;2023-05-10T02:32:56;6.80;86.00
55064;DHT22;40963;52.168;21.296;2023-05-10T02:35:23;6.80;86.20
55064;DHT22;40963;52.168;21.296;2023-05-10T02:37:50;6.80;86.40
55064;DHT22;40963;52.168;21.296;2023-05-10T02:40:16;6.70;86.30
55064;DHT22;40963;52.168;21.296;2023-05-10T02:42:44;6.70;86.60
55064;DHT22;40963;52.168;21.296;2023-05-10T02:45:13;6.70;86.70
55064;DHT22;40963;52.168;21.296;2023-05-10T02:47:39;6.60;86.80
55064;DHT22;40963;52.168;21.296;2023-05-10T02:50:06;6.60;86.90
55064;DHT22;40963;52.168;21.296;2023-05-10T02:52:40;6.60;87.20
55064;DHT22;40963;52.168;21.296;2023-05-10T02:55:09;6.60;87.60
55064;DHT22;40963;52.168;21.296;2023-05-10T02:57:41;6.50;87.90
55064;DHT22;40963;52.168;21.296;2023-05-10T03:00:08;6.50;88.20
55064;DHT22;40963;52.168;21.296;2023-05-10T03:02:34;6.50;88.50
55064;DHT22;40963;52.168;21.296;2023-05-10T03:04:59;6.50;88.80
55064;DHT22;40963;52.168;21.296;2023-05-10T03:07:25;6.50;88.80
55064;DHT22;40963;52.168;21.296;2023-05-10T03:09:51;6.50;89.20
55064;DHT22;40963;52.168;21.296;2023-05-10T03:15:22;6.50;89.80
55064;DHT22;40963;52.168;21.296;2023-05-10T03:20:34;6.50;90.10
55064;DHT22;40963;52.168;21.296;2023-05-10T03:23:04;6.50;90.10
55064;DHT22;40963;52.168;21.296;2023-05-10T03:25:31;6.50;90.00
55064;DHT22;40963;52.168;21.296;2023-05-10T03:27:58;6.50;90.00
55064;DHT22;40963;52.168;21.296;2023-05-10T03:30:24;6.40;90.00
55064;DHT22;40963;52.168;21.296;2023-05-10T03:32:50;6.40;90.30
55064;DHT22;40963;52.168;21.296;2023-05-10T03:35:16;6.40;90.30
55064;DHT22;40963;52.168;21.296;2023-05-10T03:37:41;6.40;90.40
55064;DHT22;40963;52.168;21.296;2023-05-10T03:40:08;6.40;90.50
55064;DHT22;40963;52.168;21.296;2023-05-10T03:42:34;6.40;90.60
55064;DHT22;40963;52.168;21.296;2023-05-10T03:44:59;6.50;90.70
55064;DHT22;40963;52.168;21.296;2023-05-10T03:47:25;6.50;90.60
55064;DHT22;40963;52.168;21.296;2023-05-10T03:49:51;6.50;90.60
55064;DHT22;40963;52.168;21.296;2023-05-10T03:52:17;6.50;90.60
55064;DHT22;40963;52.168;21.296;2023-05-10T03:54:43;6.50;90.70
55064;DHT22;40963;52.168;21.296;2023-05-10T03:57:08;6.50;90.70
55064;DHT22;40963;52.168;21.296;2023-05-10T03:59:34;6.60;90.60
55064;DHT22;40963;52.168;21.296;2023-05-10T04:02:00;6.60;90.90
55064;DHT22;40963;52.168;21.296;2023-05-10T04:04:26;6.60;90.50
55064;DHT22;40963;52.168;21.296;2023-05-10T04:06:51;6.70;90.40
55064;DHT22;40963;52.168;21.296;2023-05-10T04:09:17;6.70;90.40
55064;DHT22;40963;52.168;21.296;2023-05-10T04:11:43;6.70;90.20
55064;DHT22;40963;52.168;21.296;2023-05-10T04:14:08;6.80;90.10
55064;DHT22;40963;52.168;21.296;2023-05-10T04:16:34;6.90;90.00
55064;DHT22;40963;52.168;21.296;2023-05-10T04:19:00;6.90;89.80
55064;DHT22;40963;52.168;21.296;2023-05-10T04:21:25;7.00;89.60
55064;DHT22;40963;52.168;21.296;2023-05-10T04:23:51;7.00;89.50
55064;DHT22;40963;52.168;21.296;2023-05-10T04:26:16;7.10;89.40
55064;DHT22;40963;52.168;21.296;2023-05-10T04:28:42;7.10;89.10
55064;DHT22;40963;52.168;21.296;2023-05-10T04:31:09;7.20;88.90
55064;DHT22;40963;52.168;21.296;2023-05-10T04:33:35;7.30;88.60
55064;DHT22;40963;52.168;21.296;2023-05-10T04:36:01;7.30;88.40
55064;DHT22;40963;52.168;21.296;2023-05-10T04:38:27;7.40;87.80
55064;DHT22;40963;52.168;21.296;2023-05-10T04:40:53;7.50;87.30
55064;DHT22;40963;52.168;21.296;2023-05-10T04:43:19;7.50;87.20
55064;DHT22;40963;52.168;21.296;2023-05-10T04:45:45;7.60;87.20
55064;DHT22;40963;52.168;21.296;2023-05-10T04:48:11;7.70;87.20
55064;DHT22;40963;52.168;21.296;2023-05-10T04:50:36;7.80;86.60
55064;DHT22;40963;52.168;21.296;2023-05-10T04:53:02;7.90;86.10
55064;DHT22;40963;52.168;21.296;2023-05-10T04:55:28;8.00;85.60
55064;DHT22;40963;52.168;21.296;2023-05-10T04:57:53;8.00;85.30
55064;DHT22;40963;52.168;21.296;2023-05-10T05:00:22;8.10;85.20
55064;DHT22;40963;52.168;21.296;2023-05-10T05:02:47;8.20;85.00
55064;DHT22;40963;52.168;21.296;2023-05-10T05:05:13;8.30;84.20
55064;DHT22;40963;52.168;21.296;2023-05-10T05:07:39;8.40;83.90
55064;DHT22;40963;52.168;21.296;2023-05-10T05:10:08;8.50;83.90
55064;DHT22;40963;52.168;21.296;2023-05-10T05:12:34;8.60;83.90
55064;DHT22;40963;52.168;21.296;2023-05-10T05:15:00;8.70;83.60
55064;DHT22;40963;52.168;21.296;2023-05-10T05:17:25;8.90;82.90
55064;DHT22;40963;52.168;21.296;2023-05-10T05:19:51;8.90;82.00
55064;DHT22;40963;52.168;21.296;2023-05-10T05:22:17;9.10;81.40
55064;DHT22;40963;52.168;21.296;2023-05-10T05:24:44;9.20;81.20
55064;DHT22;40963;52.168;21.296;2023-05-10T05:27:10;9.30;81.10
55064;DHT22;40963;52.168;21.296;2023-05-10T05:29:35;9.50;79.40
55064;DHT22;40963;52.168;21.296;2023-05-10T05:32:01;9.60;78.70
55064;DHT22;40963;52.168;21.296;2023-05-10T05:34:27;9.70;78.20
55064;DHT22;40963;52.168;21.296;2023-05-10T05:36:52;9.90;77.70
55064;DHT22;40963;52.168;21.296;2023-05-10T05:39:19;10.00;76.50
55064;DHT22;40963;52.168;21.296;2023-05-10T05:41:44;10.20;75.90
55064;DHT22;40963;52.168;21.296;2023-05-10T05:44:10;10.30;75.70
55064;DHT22;40963;52.168;21.296;2023-05-10T05:46:35;10.40;74.90
55064;DHT22;40963;52.168;21.296;2023-05-10T05:49:02;10.60;73.80
55064;DHT22;40963;52.168;21.296;2023-05-10T05:51:27;10.70;73.30
55064;DHT22;40963;52.168;21.296;2023-05-10T05:53:53;10.80;72.40
55064;DHT22;40963;52.168;21.296;2023-05-10T05:56:18;11.00;72.20
55064;DHT22;40963;52.168;21.296;2023-05-10T05:58:52;11.10;71.20
55064;DHT22;40963;52.168;21.296;2023-05-10T06:01:18;11.20;70.90
55064;DHT22;40963;52.168;21.296;2023-05-10T06:03:43;11.30;69.80
55064;DHT22;40963;52.168;21.296;2023-05-10T06:06:09;11.40;69.10
55064;DHT22;40963;52.168;21.296;2023-05-10T06:08:34;11.50;68.50
55064;DHT22;40963;52.168;21.296;2023-05-10T06:11:00;11.70;67.90
55064;DHT22;40963;52.168;21.296;2023-05-10T06:13:26;11.80;66.80
55064;DHT22;40963;52.168;21.296;2023-05-10T06:15:57;11.90;66.20
55064;DHT22;40963;52.168;21.296;2023-05-10T06:18:23;12.00;66.10
55064;DHT22;40963;52.168;21.296;2023-05-10T06:20:49;12.10;65.30
55064;DHT22;40963;52.168;21.296;2023-05-10T06:23:15;12.20;64.70
55064;DHT22;40963;52.168;21.296;2023-05-10T06:25:41;12.40;64.60
55064;DHT22;40963;52.168;21.296;2023-05-10T06:28:06;12.50;64.10
55064;DHT22;40963;52.168;21.296;2023-05-10T06:30:32;12.60;63.60
55064;DHT22;40963;52.168;21.296;2023-05-10T06:32:57;12.70;63.40
55064;DHT22;40963;52.168;21.296;2023-05-10T06:35:23;12.90;62.70
55064;DHT22;40963;52.168;21.296;2023-05-10T06:37:49;13.00;61.80
55064;DHT22;40963;52.168;21.296;2023-05-10T06:40:15;13.10;61.10
55064;DHT22;40963;52.168;21.296;2023-05-10T06:42:41;13.20;60.70
55064;DHT22;40963;52.168;21.296;2023-05-10T06:45:07;13.30;60.60
55064;DHT22;40963;52.168;21.296;2023-05-10T06:47:33;13.40;59.40
55064;DHT22;40963;52.168;21.296;2023-05-10T06:49:59;13.50;59.10
55064;DHT22;40963;52.168;21.296;2023-05-10T06:52:25;13.60;59.00
55064;DHT22;40963;52.168;21.296;2023-05-10T06:54:50;13.70;58.20
55064;DHT22;40963;52.168;21.296;2023-05-10T06:57:16;13.80;57.60
55064;DHT22;40963;52.168;21.296;2023-05-10T06:59:43;13.90;56.60
55064;DHT22;40963;52.168;21.296;2023-05-10T07:02:08;13.90;55.60
55064;DHT22;40963;52.168;21.296;2023-05-10T07:04:34;14.00;55.10
55064;DHT22;40963;52.168;21.296;2023-05-10T07:06:59;14.10;54.90
55064;DHT22;40963;52.168;21.296;2023-05-10T07:09:25;14.20;54.90
55064;DHT22;40963;52.168;21.296;2023-05-10T07:11:52;14.30;55.00
55064;DHT22;40963;52.168;21.296;2023-05-10T07:14:17;14.50;54.90
55064;DHT22;40963;52.168;21.296;2023-05-10T07:16:43;14.60;54.10
55064;DHT22;40963;52.168;21.296;2023-05-10T07:19:09;14.70;53.60
55064;DHT22;40963;52.168;21.296;2023-05-10T07:21:36;14.90;52.80
55064;DHT22;40963;52.168;21.296;2023-05-10T07:24:01;15.00;51.90
55064;DHT22;40963;52.168;21.296;2023-05-10T07:26:27;15.00;50.90
55064;DHT22;40963;52.168;21.296;2023-05-10T07:28:52;15.10;50.30
55064;DHT22;40963;52.168;21.296;2023-05-10T07:31:18;15.10;50.20
55064;DHT22;40963;52.168;21.296;2023-05-10T07:33:44;15.20;50.30
55064;DHT22;40963;52.168;21.296;2023-05-10T07:36:09;15.40;50.50
55064;DHT22;40963;52.168;21.296;2023-05-10T07:38:35;15.50;50.50
55064;DHT22;40963;52.168;21.296;2023-05-10T07:41:01;15.60;49.70
55064;DHT22;40963;52.168;21.296;2023-05-10T07:43:26;15.70;49.40
55064;DHT22;40963;52.168;21.296;2023-05-10T07:45:52;15.70;47.80
55064;DHT22;40963;52.168;21.296;2023-05-10T07:48:18;15.70;47.20
55064;DHT22;40963;52.168;21.296;2023-05-10T07:50:43;15.70;47.30
55064;DHT22;40963;52.168;21.296;2023-05-10T07:53:09;15.80;46.90
55064;DHT22;40963;52.168;21.296;2023-05-10T07:55:35;15.90;45.30
55064;DHT22;40963;52.168;21.296;2023-05-10T07:58:00;15.90;44.90
55064;DHT22;40963;52.168;21.296;2023-05-10T08:00:26;16.00;44.50
55064;DHT22;40963;52.168;21.296;2023-05-10T08:02:52;16.10;43.70
55064;DHT22;40963;52.168;21.296;2023-05-10T08:05:18;16.10;42.20
55064;DHT22;40963;52.168;21.296;2023-05-10T08:07:43;16.10;42.20
55064;DHT22;40963;52.168;21.296;2023-05-10T08:10:10;16.10;42.30
55064;DHT22;40963;52.168;21.296;2023-05-10T08:12:37;16.20;42.40
55064;DHT22;40963;52.168;21.296;2023-05-10T08:15:03;16.30;42.90
55064;DHT22;40963;52.168;21.296;2023-05-10T08:17:29;16.40;43.10
55064;DHT22;40963;52.168;21.296;2023-05-10T08:19:54;16.50;42.90
55064;DHT22;40963;52.168;21.296;2023-05-10T08:22:20;16.50;41.90
55064;DHT22;40963;52.168;21.296;2023-05-10T08:24:45;16.60;41.60
55064;DHT22;40963;52.168;21.296;2023-05-10T08:27:11;16.60;41.50
55064;DHT22;40963;52.168;21.296;2023-05-10T08:29:37;16.60;41.70
55064;DHT22;40963;52.168;21.296;2023-05-10T08:32:03;16.70;42.20
55064;DHT22;40963;52.168;21.296;2023-05-10T08:34:28;16.80;42.20
55064;DHT22;40963;52.168;21.296;2023-05-10T08:36:56;16.90;42.00
55064;DHT22;40963;52.168;21.296;2023-05-10T08:39:21;17.00;42.30
55064;DHT22;40963;52.168;21.296;2023-05-10T08:41:51;17.10;42.70
55064;DHT22;40963;52.168;21.296;2023-05-10T08:44:19;17.10;42.00
55064;DHT22;40963;52.168;21.296;2023-05-10T08:46:46;17.00;42.10
55064;DHT22;40963;52.168;21.296;2023-05-10T08:49:17;17.00;42.10
55064;DHT22;40963;52.168;21.296;2023-05-10T08:51:49;17.00;42.00
55064;DHT22;40963;52.168;21.296;2023-05-10T08:54:16;17.10;41.90
55064;DHT22;40963;52.168;21.296;2023-05-10T08:56:42;17.10;41.60
55064;DHT22;40963;52.168;21.296;2023-05-10T08:59:07;17.10;41.30
55064;DHT22;40963;52.168;21.296;2023-05-10T09:01:34;17.10;41.50
55064;DHT22;40963;52.168;21.296;2023-05-10T09:04:00;17.20;41.70
55064;DHT22;40963;52.168;21.296;2023-05-10T09:06:26;17.40;42.10
55064;DHT22;40963;52.168;21.296;2023-05-10T09:08:52;17.50;42.40
55064;DHT22;40963;52.168;21.296;2023-05-10T09:11:18;17.60;41.90
55064;DHT22;40963;52.168;21.296;2023-05-10T09:13:47;17.60;41.40
55064;DHT22;40963;52.168;21.296;2023-05-10T09:16:13;17.60;41.50
55064;DHT22;40963;52.168;21.296;2023-05-10T09:18:38;17.70;41.40
55064;DHT22;40963;52.168;21.296;2023-05-10T09:21:04;17.70;40.90
55064;DHT22;40963;52.168;21.296;2023-05-10T09:23:30;17.60;40.30
55064;DHT22;40963;52.168;21.296;2023-05-10T09:26:04;17.60;40.30
55064;DHT22;40963;52.168;21.296;2023-05-10T09:28:34;17.60;40.60
55064;DHT22;40963;52.168;21.296;2023-05-10T09:31:00;17.60;40.90
55064;DHT22;40963;52.168;21.296;2023-05-10T09:33:25;17.70;41.10
55064;DHT22;40963;52.168;21.296;2023-05-10T09:35:52;17.80;40.50
55064;DHT22;40963;52.168;21.296;2023-05-10T09:38:17;17.80;40.20
55064;DHT22;40963;52.168;21.296;2023-05-10T09:40:51;17.90;40.40
55064;DHT22;40963;52.168;21.296;2023-05-10T09:43:20;18.00;40.50
55064;DHT22;40963;52.168;21.296;2023-05-10T09:45:48;18.10;41.00
55064;DHT22;40963;52.168;21.296;2023-05-10T09:48:15;18.20;40.60
55064;DHT22;40963;52.168;21.296;2023-05-10T09:50:41;18.20;40.80
55064;DHT22;40963;52.168;21.296;2023-05-10T09:53:07;18.20;40.70
55064;DHT22;40963;52.168;21.296;2023-05-10T09:55:39;18.30;40.70
55064;DHT22;40963;52.168;21.296;2023-05-10T09:58:05;18.30;40.30
55064;DHT22;40963;52.168;21.296;2023-05-10T10:00:42;18.20;40.30
55064;DHT22;40963;52.168;21.296;2023-05-10T10:03:16;18.20;40.30
55064;DHT22;40963;52.168;21.296;2023-05-10T10:05:43;18.20;40.30
55064;DHT22;40963;52.168;21.296;2023-05-10T10:08:11;18.20;40.30
55064;DHT22;40963;52.168;21.296;2023-05-10T10:10:37;18.20;40.00
55064;DHT22;40963;52.168;21.296;2023-05-10T10:13:07;18.30;40.20
55064;DHT22;40963;52.168;21.296;2023-05-10T10:15:34;18.30;40.00
55064;DHT22;40963;52.168;21.296;2023-05-10T10:18:00;18.30;39.90
55064;DHT22;40963;52.168;21.296;2023-05-10T10:20:26;18.40;39.70
55064;DHT22;40963;52.168;21.296;2023-05-10T10:22:52;18.40;39.50
55064;DHT22;40963;52.168;21.296;2023-05-10T10:25:19;18.40;39.00
55064;DHT22;40963;52.168;21.296;2023-05-10T10:30:19;18.50;39.10
55064;DHT22;40963;52.168;21.296;2023-05-10T10:35:31;18.50;38.70
55064;DHT22;40963;52.168;21.296;2023-05-10T10:37:57;18.50;38.80
55064;DHT22;40963;52.168;21.296;2023-05-10T10:42:50;18.60;38.80
55064;DHT22;40963;52.168;21.296;2023-05-10T10:45:16;18.70;39.10
55064;DHT22;40963;52.168;21.296;2023-05-10T10:47:41;18.80;39.20
55064;DHT22;40963;52.168;21.296;2023-05-10T10:50:08;18.80;38.70
55064;DHT22;40963;52.168;21.296;2023-05-10T10:52:41;18.80;38.40
55064;DHT22;40963;52.168;21.296;2023-05-10T10:55:09;18.80;38.40
55064;DHT22;40963;52.168;21.296;2023-05-10T10:57:49;18.80;38.70
55064;DHT22;40963;52.168;21.296;2023-05-10T11:05:46;18.90;39.70
55064;DHT22;40963;52.168;21.296;2023-05-10T11:08:31;19.00;39.90
55064;DHT22;40963;52.168;21.296;2023-05-10T11:13:33;19.10;39.70
55064;DHT22;40963;52.168;21.296;2023-05-10T11:16:09;19.10;40.00
55064;DHT22;40963;52.168;21.296;2023-05-10T11:18:36;19.10;40.20
55064;DHT22;40963;52.168;21.296;2023-05-10T11:21:02;19.10;39.20
55064;DHT22;40963;52.168;21.296;2023-05-10T11:23:51;19.10;39.10
55064;DHT22;40963;52.168;21.296;2023-05-10T11:26:17;19.00;38.40
55064;DHT22;40963;52.168;21.296;2023-05-10T11:28:48;19.00;38.50
55064;DHT22;40963;52.168;21.296;2023-05-10T11:31:18;19.00;38.40
55064;DHT22;40963;52.168;21.296;2023-05-10T11:33:45;19.00;38.50
55064;DHT22;40963;52.168;21.296;2023-05-10T11:36:16;19.10;38.60
55064;DHT22;40963;52.168;21.296;2023-05-10T11:38:42;19.10;38.60
55064;DHT22;40963;52.168;21.296;2023-05-10T11:41:11;19.10;38.40
55064;DHT22;40963;52.168;21.296;2023-05-10T11:43:38;19.10;38.50
55064;DHT22;40963;52.168;21.296;2023-05-10T11:46:06;19.20;38.50
55064;DHT22;40963;52.168;21.296;2023-05-10T11:48:32;19.20;38.80
55064;DHT22;40963;52.168;21.296;2023-05-10T11:50:57;19.20;38.40
55064;DHT22;40963;52.168;21.296;2023-05-10T11:53:26;19.20;38.70
55064;DHT22;40963;52.168;21.296;2023-05-10T11:55:51;19.20;38.90
55064;DHT22;40963;52.168;21.296;2023-05-10T11:58:18;19.30;39.10
55064;DHT22;40963;52.168;21.296;2023-05-10T12:00:44;19.30;39.00
55064;DHT22;40963;52.168;21.296;2023-05-10T12:03:10;19.30;38.70
55064;DHT22;40963;52.168;21.296;2023-05-10T12:05:36;19.30;38.80
55064;DHT22;40963;52.168;21.296;2023-05-10T12:08:15;19.20;38.60
55064;DHT22;40963;52.168;21.296;2023-05-10T12:10:41;19.20;38.80
55064;DHT22;40963;52.168;21.296;2023-05-10T12:13:14;19.10;39.10
55064;DHT22;40963;52.168;21.296;2023-05-10T12:15:41;19.10;39.80
55064;DHT22;40963;52.168;21.296;2023-05-10T12:18:09;19.00;40.10
55064;DHT22;40963;52.168;21.296;2023-05-10T12:20:36;19.10;39.90
55064;DHT22;40963;52.168;21.296;2023-05-10T12:23:02;19.10;39.50
55064;DHT22;40963;52.168;21.296;2023-05-10T12:25:36;19.10;39.50
55064;DHT22;40963;52.168;21.296;2023-05-10T12:28:07;19.20;40.00
55064;DHT22;40963;52.168;21.296;2023-05-10T12:30:35;19.20;39.80
55064;DHT22;40963;52.168;21.296;2023-05-10T12:33:11;19.20;39.80
55064;DHT22;40963;52.168;21.296;2023-05-10T12:35:52;19.20;39.60
55064;DHT22;40963;52.168;21.296;2023-05-10T12:38:34;19.30;39.80
55064;DHT22;40963;52.168;21.296;2023-05-10T12:41:02;19.30;40.00
55064;DHT22;40963;52.168;21.296;2023-05-10T12:43:29;19.20;39.60
55064;DHT22;40963;52.168;21.296;2023-05-10T12:45:55;19.10;39.60
55064;DHT22;40963;52.168;21.296;2023-05-10T12:48:21;19.10;39.80
55064;DHT22;40963;52.168;21.296;2023-05-10T12:50:46;19.10;40.00
55064;DHT22;40963;52.168;21.296;2023-05-10T12:53:15;19.20;40.20
55064;DHT22;40963;52.168;21.296;2023-05-10T12:55:42;19.20;40.00
55064;DHT22;40963;52.168;21.296;2023-05-10T12:58:08;19.20;39.90
55064;DHT22;40963;52.168;21.296;2023-05-10T13:00:33;19.20;39.60
55064;DHT22;40963;52.168;21.296;2023-05-10T13:02:59;19.20;39.90
55064;DHT22;40963;52.168;21.296;2023-05-10T13:05:25;19.20;40.10
55064;DHT22;40963;52.168;21.296;2023-05-10T13:07:51;19.20;39.70
55064;DHT22;40963;52.168;21.296;2023-05-10T13:10:17;19.20;39.70
55064;DHT22;40963;52.168;21.296;2023-05-10T13:12:42;19.30;39.70
55064;DHT22;40963;52.168;21.296;2023-05-10T13:15:08;19.30;39.40
55064;DHT22;40963;52.168;21.296;2023-05-10T13:17:34;19.30;39.30
55064;DHT22;40963;52.168;21.296;2023-05-10T13:19:59;19.30;38.90
55064;DHT22;40963;52.168;21.296;2023-05-10T13:22:25;19.40;38.80
55064;DHT22;40963;52.168;21.296;2023-05-10T13:24:50;19.30;38.50
55064;DHT22;40963;52.168;21.296;2023-05-10T13:27:16;19.30;38.50
55064;DHT22;40963;52.168;21.296;2023-05-10T13:29:42;19.30;38.40
55064;DHT22;40963;52.168;21.296;2023-05-10T13:32:07;19.40;38.30
55064;DHT22;40963;52.168;21.296;2023-05-10T13:34:33;19.30;37.90
55064;DHT22;40963;52.168;21.296;2023-05-10T13:37:01;19.30;37.50
55064;DHT22;40963;52.168;21.296;2023-05-10T13:39:26;19.20;37.10
55064;DHT22;40963;52.168;21.296;2023-05-10T13:41:52;19.10;36.90
55064;DHT22;40963;52.168;21.296;2023-05-10T13:44:18;19.10;37.00
55064;DHT22;40963;52.168;21.296;2023-05-10T13:46:43;19.10;37.20
55064;DHT22;40963;52.168;21.296;2023-05-10T13:49:09;19.10;37.30
55064;DHT22;40963;52.168;21.296;2023-05-10T13:51:35;19.10;37.20
55064;DHT22;40963;52.168;21.296;2023-05-10T13:54:02;19.00;37.00
55064;DHT22;40963;52.168;21.296;2023-05-10T13:56:27;19.10;37.50
55064;DHT22;40963;52.168;21.296;2023-05-10T13:58:53;19.10;37.50
55064;DHT22;40963;52.168;21.296;2023-05-10T14:01:19;19.20;37.80
55064;DHT22;40963;52.168;21.296;2023-05-10T14:03:44;19.20;37.80
55064;DHT22;40963;52.168;21.296;2023-05-10T14:06:10;19.20;37.80
55064;DHT22;40963;52.168;21.296;2023-05-10T14:08:36;19.20;37.60
55064;DHT22;40963;52.168;21.296;2023-05-10T14:11:02;19.20;37.90
55064;DHT22;40963;52.168;21.296;2023-05-10T14:13:27;19.30;38.30
55064;DHT22;40963;52.168;21.296;2023-05-10T14:15:54;19.30;37.90
55064;DHT22;40963;52.168;21.296;2023-05-10T14:18:20;19.20;37.60
55064;DHT22;40963;52.168;21.296;2023-05-10T14:20:46;19.20;38.10
55064;DHT22;40963;52.168;21.296;2023-05-10T14:23:11;19.20;38.00
55064;DHT22;40963;52.168;21.296;2023-05-10T14:25:39;19.20;38.00
55064;DHT22;40963;52.168;21.296;2023-05-10T14:28:05;19.10;38.00
55064;DHT22;40963;52.168;21.296;2023-05-10T14:30:31;19.10;37.90
55064;DHT22;40963;52.168;21.296;2023-05-10T14:32:57;19.10;38.00
55064;DHT22;40963;52.168;21.296;2023-05-10T14:35:23;19.10;37.70
55064;DHT22;40963;52.168;21.296;2023-05-10T14:37:49;19.00;37.60
55064;DHT22;40963;52.168;21.296;2023-05-10T14:40:14;19.00;37.60
55064;DHT22;40963;52.168;21.296;2023-05-10T14:42:41;19.10;37.90
55064;DHT22;40963;52.168;21.296;2023-05-10T14:45:07;19.00;37.50
55064;DHT22;40963;52.168;21.296;2023-05-10T14:47:34;19.00;37.30
55064;DHT22;40963;52.168;21.296;2023-05-10T14:49:59;19.00;37.30
55064;DHT22;40963;52.168;21.296;2023-05-10T14:52:25;18.90;37.10
55064;DHT22;40963;52.168;21.296;2023-05-10T14:54:51;18.90;37.10
55064;DHT22;40963;52.168;21.296;2023-05-10T14:57:17;18.90;37.20
55064;DHT22;40963;52.168;21.296;2023-05-10T14:59:42;18.90;37.50
55064;DHT22;40963;52.168;21.296;2023-05-10T15:02:08;19.00;38.50
55064;DHT22;40963;52.168;21.296;2023-05-10T15:04:33;18.90;37.60
55064;DHT22;40963;52.168;21.296;2023-05-10T15:06:59;18.90;37.50
55064;DHT22;40963;52.168;21.296;2023-05-10T15:09:25;18.80;37.30
55064;DHT22;40963;52.168;21.296;2023-05-10T15:11:53;18.80;37.10
55064;DHT22;40963;52.168;21.296;2023-05-10T15:14:18;18.70;37.00
55064;DHT22;40963;52.168;21.296;2023-05-10T15:16:44;18.70;37.20
55064;DHT22;40963;52.168;21.296;2023-05-10T15:19:09;18.70;37.50
55064;DHT22;40963;52.168;21.296;2023-05-10T15:21:35;18.70;37.50
55064;DHT22;40963;52.168;21.296;2023-05-10T15:24:05;18.60;37.30
55064;DHT22;40963;52.168;21.296;2023-05-10T15:26:31;18.50;37.00
55064;DHT22;40963;52.168;21.296;2023-05-10T15:28:56;18.50;37.10
55064;DHT22;40963;52.168;21.296;2023-05-10T15:31:22;18.40;38.00
55064;DHT22;40963;52.168;21.296;2023-05-10T15:33:47;18.40;37.70
55064;DHT22;40963;52.168;21.296;2023-05-10T15:36:13;18.40;37.90
55064;DHT22;40963;52.168;21.296;2023-05-10T15:38:39;18.40;37.80
55064;DHT22;40963;52.168;21.296;2023-05-10T15:41:04;18.40;37.80
55064;DHT22;40963;52.168;21.296;2023-05-10T15:43:30;18.40;37.90
55064;DHT22;40963;52.168;21.296;2023-05-10T15:45:56;18.30;37.60
55064;DHT22;40963;52.168;21.296;2023-05-10T15:48:21;18.30;37.30
55064;DHT22;40963;52.168;21.296;2023-05-10T15:50:47;18.20;37.30
55064;DHT22;40963;52.168;21.296;2023-05-10T15:53:12;18.20;37.40
55064;DHT22;40963;52.168;21.296;2023-05-10T15:55:38;18.20;37.50